Home > Products > Valid Products > TAF

000
FTUS43 KOAX 312320
TAFLNK
TAF
KLNK 312320Z 0100/0124 16010KT P6SM SCT050 BKN100
     FM010100 14007KT P6SM SCT050 BKN100
      TEMPO 0101/0105 -SHRA BKN050
     FM010700 VRB03KT P6SM SCT050 SCT250=



000
FTUS43 KOAX 312320
TAFOMA
TAF
KOMA 312320Z 0100/0124 12008KT P6SM SCT050 BKN100
     FM010100 12005KT P6SM SCT050 BKN100
      TEMPO 0102/0105 -SHRA BKN050
     FM010700 VRB03KT P6SM SCT050 SCT250=



000
FTUS43 KOAX 312320
TAFOFK
TAF
KOFK 312320Z 0100/0124 09008KT P6SM VCTS BKN050CB
     FM010100 14006KT P6SM SCT050 SCT100
     FM010900 VRB03KT P6SM SCT250
      TEMPO 0110/0113 5SM BR=



000
FTUS43 KOAX 312320
TAFOFK
TAF
KOFK 312320Z 0100/0124 09008KT P6SM VCTS BKN050CB
     FM010100 14006KT P6SM SCT050 SCT100
     FM010900 VRB03KT P6SM SCT250
      TEMPO 0110/0113 5SM BR=



000
FTUS43 KOAX 312320
TAFOMA
TAF
KOMA 312320Z 0100/0124 12008KT P6SM SCT050 BKN100
     FM010100 12005KT P6SM SCT050 BKN100
      TEMPO 0102/0105 -SHRA BKN050
     FM010700 VRB03KT P6SM SCT050 SCT250=



000
FTUS43 KOAX 312320
TAFLNK
TAF
KLNK 312320Z 0100/0124 16010KT P6SM SCT050 BKN100
     FM010100 14007KT P6SM SCT050 BKN100
      TEMPO 0101/0105 -SHRA BKN050
     FM010700 VRB03KT P6SM SCT050 SCT250=



000
FTUS43 KOAX 312243 AAB
TAFOFK
TAF AMD
KOFK 312243Z 3123/0118 14011KT P6SM VCTS BKN050CB
     FM010100 14006KT P6SM SCT050 SCT100
     FM010900 VRB03KT P6SM SCT250
      TEMPO 0110/0113 5SM BR=



000
FTUS43 KOAX 312243 AAB
TAFOFK
TAF AMD
KOFK 312243Z 3123/0118 14011KT P6SM VCTS BKN050CB
     FM010100 14006KT P6SM SCT050 SCT100
     FM010900 VRB03KT P6SM SCT250
      TEMPO 0110/0113 5SM BR=



000
FTUS43 KOAX 312219 AAA
TAFLNK
TAF AMD
KLNK 312219Z 3122/0118 18010KT P6SM SCT050 BKN100
     FM010100 14007KT P6SM SCT050 BKN100
      TEMPO 0101/0105 BKN050
     FM010700 VRB03KT P6SM SCT050 SCT250=



000
FTUS43 KOAX 312219 AAA
TAFLNK
TAF AMD
KLNK 312219Z 3122/0118 18010KT P6SM SCT050 BKN100
     FM010100 14007KT P6SM SCT050 BKN100
      TEMPO 0101/0105 BKN050
     FM010700 VRB03KT P6SM SCT050 SCT250=



000
FTUS43 KOAX 312217 AAA
TAFOMA
TAF AMD
KOMA 312217Z 3122/0118 14008KT P6SM SCT050 BKN100
     FM010100 12005KT P6SM SCT050 BKN100
      TEMPO 0102/0105 BKN050
     FM010700 VRB03KT P6SM SCT050 SCT250=



000
FTUS43 KOAX 312217 AAA
TAFOMA
TAF AMD
KOMA 312217Z 3122/0118 14008KT P6SM SCT050 BKN100
     FM010100 12005KT P6SM SCT050 BKN100
      TEMPO 0102/0105 BKN050
     FM010700 VRB03KT P6SM SCT050 SCT250=



000
FTUS43 KOAX 312206 AAA
TAFOFK
TAF AMD
KOFK 312206Z 3122/0118 14011KT P6SM BKN050
     FM010100 14006KT P6SM SCT050 SCT100
     FM010900 VRB03KT P6SM SCT250
      TEMPO 0110/0113 5SM BR=



000
FTUS43 KOAX 312206 AAA
TAFOFK
TAF AMD
KOFK 312206Z 3122/0118 14011KT P6SM BKN050
     FM010100 14006KT P6SM SCT050 SCT100
     FM010900 VRB03KT P6SM SCT250
      TEMPO 0110/0113 5SM BR=



000
FTUS43 KOAX 311720
TAFLNK
TAF
KLNK 311720Z 3118/0118 23010KT P6SM SCT250=



000
FTUS43 KOAX 311720
TAFOMA
TAF
KOMA 311720Z 3118/0118 19008KT P6SM SCT060 SCT250=



000
FTUS43 KOAX 311720
TAFLNK
TAF
KLNK 311720Z 3118/0118 23010KT P6SM SCT250=



000
FTUS43 KOAX 311720
TAFOFK
TAF
KOFK 311720Z 3118/0118 17009KT P6SM SCT060=



000
FTUS43 KOAX 311720
TAFOFK
TAF
KOFK 311720Z 3118/0118 17009KT P6SM SCT060=



000
FTUS43 KOAX 311720
TAFOMA
TAF
KOMA 311720Z 3118/0118 19008KT P6SM SCT060 SCT250=



000
FTUS43 KOAX 311120
TAFOMA
TAF
KOMA 311120Z 3112/0112 VRB05KT P6SM BKN050=



000
FTUS43 KOAX 311120
TAFOFK
TAF
KOFK 311120Z 3112/0112 VRB05KT P6SM BKN050=



000
FTUS43 KOAX 311120
TAFLNK
TAF
KLNK 311120Z 3112/0112 VRB05KT P6SM BKN050=



000
FTUS43 KOAX 310520
TAFOFK
TAF
KOFK 310520Z 3106/0106 18005KT P6SM SCT250
     FM311200 20005KT P6SM SCT060 PROB30 3115/3118 -SHRA BKN060
     FM311900 14010KT P6SM SCT060
     FM010000 09008KT P6SM SCT050=



000
FTUS43 KOAX 310520
TAFLNK
TAF
KLNK 310520Z 3106/0106 VRB04KT P6SM SCT250
     FM311400 17007KT P6SM SCT100
     FM010100 09006KT P6SM BKN080 BKN250=



000
FTUS43 KOAX 310520
TAFOMA
TAF
KOMA 310520Z 3106/0106 VRB04KT P6SM SCT250
     FM311400 18004KT P6SM SCT100
     FM312300 08005KT P6SM BKN080 BKN250=



000
FTUS43 KOAX 310520
TAFOFK
TAF
KOFK 310520Z 3106/0106 18005KT P6SM SCT250
     FM311200 20005KT P6SM SCT060 PROB30 3115/3118 -SHRA BKN060
     FM311900 14010KT P6SM SCT060
     FM010000 09008KT P6SM SCT050=



000
FTUS43 KOAX 310520
TAFLNK
TAF
KLNK 310520Z 3106/0106 VRB04KT P6SM SCT250
     FM311400 17007KT P6SM SCT100
     FM010100 09006KT P6SM BKN080 BKN250=



000
FTUS43 KOAX 310520
TAFOMA
TAF
KOMA 310520Z 3106/0106 VRB04KT P6SM SCT250
     FM311400 18004KT P6SM SCT100
     FM312300 08005KT P6SM BKN080 BKN250=



000
FTUS43 KOAX 302322
TAFOMA
TAF
KOMA 302322Z 3100/3124 01004KT P6SM SCT060 SCT250
     FM311200 VRB03KT P6SM SCT100
     FM311700 19006KT P6SM BKN120 BKN250=



000
FTUS43 KOAX 302322
TAFLNK
TAF
KLNK 302322Z 3100/3124 04006KT P6SM FEW050 SCT250
     FM311200 VRB03KT P6SM SCT100
     FM311700 19006KT P6SM SCT120 BKN250=



000
FTUS43 KOAX 302322
TAFOFK
TAF
KOFK 302322Z 3100/3124 33005KT P6SM SCT080
     FM311200 20004KT P6SM SCT050
     FM311700 18009KT P6SM VCSH SCT050=



000
FTUS43 KOAX 302322
TAFOMA
TAF
KOMA 302322Z 3100/3124 01004KT P6SM SCT060 SCT250
     FM311200 VRB03KT P6SM SCT100
     FM311700 19006KT P6SM BKN120 BKN250=



000
FTUS43 KOAX 302322
TAFLNK
TAF
KLNK 302322Z 3100/3124 04006KT P6SM FEW050 SCT250
     FM311200 VRB03KT P6SM SCT100
     FM311700 19006KT P6SM SCT120 BKN250=



000
FTUS43 KOAX 302322
TAFOFK
TAF
KOFK 302322Z 3100/3124 33005KT P6SM SCT080
     FM311200 20004KT P6SM SCT050
     FM311700 18009KT P6SM VCSH SCT050=



000
FTUS43 KOAX 301720
TAFOMA
TAF
KOMA 301720Z 3018/3118 36006KT P6SM BKN060
     FM310000 VRB03KT P6SM SCT250
     FM311200 19006KT P6SM SCT100=



000
FTUS43 KOAX 301720
TAFOFK
TAF
KOFK 301720Z 3018/3118 01006KT P6SM SCT060
     FM310000 VRB04KT P6SM SCT080
     FM311200 19006KT P6SM SCT050=



000
FTUS43 KOAX 301720
TAFLNK
TAF
KLNK 301720Z 3018/3118 02008KT P6SM BKN060
     FM310000 VRB03KT P6SM FEW050 SCT250
     FM311200 19007KT P6SM SCT100=



000
FTUS43 KOAX 301720
TAFOFK
TAF
KOFK 301720Z 3018/3118 01006KT P6SM SCT060
     FM310000 VRB04KT P6SM SCT080
     FM311200 19006KT P6SM SCT050=



000
FTUS43 KOAX 301720
TAFOMA
TAF
KOMA 301720Z 3018/3118 36006KT P6SM BKN060
     FM310000 VRB03KT P6SM SCT250
     FM311200 19006KT P6SM SCT100=



000
FTUS43 KOAX 301720
TAFLNK
TAF
KLNK 301720Z 3018/3118 02008KT P6SM BKN060
     FM310000 VRB03KT P6SM FEW050 SCT250
     FM311200 19007KT P6SM SCT100=



000
FTUS43 KOAX 301120
TAFOMA
TAF
KOMA 301120Z 3012/3112 36006KT P6SM FEW050 SCT250
     FM310000 VRB03KT P6SM SCT250=



000
FTUS43 KOAX 301120
TAFLNK
TAF
KLNK 301120Z 3012/3112 02008KT P6SM FEW050 SCT250
     FM311000 VRB03KT P6SM FEW050 SCT250=



000
FTUS43 KOAX 301120
TAFOMA
TAF
KOMA 301120Z 3012/3112 36006KT P6SM FEW050 SCT250
     FM310000 VRB03KT P6SM SCT250=



000
FTUS43 KOAX 301120
TAFOFK
TAF
KOFK 301120Z 3012/3112 01006KT P6SM FEW060 SCT250
     FM310300 19003KT P6SM SCT080=



000
FTUS43 KOAX 301120
TAFOFK
TAF
KOFK 301120Z 3012/3112 01006KT P6SM FEW060 SCT250
     FM310300 19003KT P6SM SCT080=



000
FTUS43 KOAX 300520
TAFOFK
TAF
KOFK 300520Z 3006/3106 VRB03KT P6SM FEW050 SCT250
      TEMPO 3011/3013 5SM BR
     FM301500 01006KT P6SM SCT050
      TEMPO 3015/3019 BKN050
     FM301900 02007KT P6SM SCT050 SCT250=



000
FTUS43 KOAX 300520
TAFLNK
TAF
KLNK 300520Z 3006/3106 VRB03KT P6SM FEW050 BKN150
     FM301000 VRB03KT P6SM SCT150 SCT250
      TEMPO 3010/3013 5SM BR
     FM301600 03006KT P6SM SCT050
     FM302000 04007KT P6SM SCT050 SCT250=



000
FTUS43 KOAX 300520
TAFOMA
TAF
KOMA 300520Z 3006/3106 02004KT P6SM SCT150 SCT250
     FM301000 VRB03KT 6SM BR SCT250
      TEMPO 3011/3013 3SM BR
     FM301500 36005KT P6SM SCT050 BKN250
      TEMPO 3016/3019 BKN050
     FM301900 02006KT P6SM SCT050 SCT250=



000
FTUS43 KOAX 300520
TAFLNK
TAF
KLNK 300520Z 3006/3106 VRB03KT P6SM FEW050 BKN150
     FM301000 VRB03KT P6SM SCT150 SCT250
      TEMPO 3010/3013 5SM BR
     FM301600 03006KT P6SM SCT050
     FM302000 04007KT P6SM SCT050 SCT250=



000
FTUS43 KOAX 300520
TAFOFK
TAF
KOFK 300520Z 3006/3106 VRB03KT P6SM FEW050 SCT250
      TEMPO 3011/3013 5SM BR
     FM301500 01006KT P6SM SCT050
      TEMPO 3015/3019 BKN050
     FM301900 02007KT P6SM SCT050 SCT250=



000
FTUS43 KOAX 300520
TAFOMA
TAF
KOMA 300520Z 3006/3106 02004KT P6SM SCT150 SCT250
     FM301000 VRB03KT 6SM BR SCT250
      TEMPO 3011/3013 3SM BR
     FM301500 36005KT P6SM SCT050 BKN250
      TEMPO 3016/3019 BKN050
     FM301900 02006KT P6SM SCT050 SCT250=



000
FTUS43 KOAX 300306 AAA
TAFLNK
TAF AMD
KLNK 300306Z 3003/3024 03004KT P6SM SCT150 BKN250
     FM301000 VRB03KT P6SM SCT250
      TEMPO 3010/3013 5SM BR
     FM301600 02006KT P6SM SCT040
     FM302000 04007KT P6SM SCT050 SCT250=



000
FTUS43 KOAX 300304 AAA
TAFOFK
TAF AMD
KOFK 300304Z 3003/3024 VRB03KT P6SM SCT250
     FM301000 VRB03KT P6SM SCT250
      TEMPO 3011/3013 5SM BR
     FM301600 01006KT P6SM SCT050
      TEMPO 3017/3020 BKN050=



000
FTUS43 KOAX 292320
TAFLNK
TAF
KLNK 292320Z 3000/3024 01006KT P6SM SCT050 BKN250
     FM300100 03004KT P6SM BKN250
     FM301000 VRB03KT P6SM BKN250
      TEMPO 3010/3013 5SM BR
     FM301600 02006KT P6SM BKN050=



000
FTUS43 KOAX 292320
TAFOFK
TAF
KOFK 292320Z 3000/3024 36005KT P6SM SCT050 BKN250
     FM300100 VRB03KT P6SM BKN250
     FM301000 VRB03KT P6SM SCT250
      TEMPO 3011/3013 5SM BR
     FM301600 36006KT P6SM BKN050=



000
FTUS43 KOAX 292320
TAFOMA
TAF
KOMA 292320Z 3000/3024 36005KT P6SM SCT050 BKN250
     FM300100 02004KT P6SM SCT250
     FM301000 VRB03KT 6SM BR SCT250
      TEMPO 3011/3014 2SM BR
     FM301500 36005KT P6SM SCT050 BKN250=



000
FTUS43 KOAX 292230 AAA
TAFOFK
TAF AMD
KOFK 292230Z 2923/3018 35006KT P6SM SCT050 BKN250
     FM300100 VRB03KT P6SM BKN250
     FM301000 VRB03KT P6SM SCT250
      TEMPO 3011/3013 5SM BR
     FM301600 36006KT P6SM BKN050=



000
FTUS43 KOAX 292230 AAA
TAFOFK
TAF AMD
KOFK 292230Z 2923/3018 35006KT P6SM SCT050 BKN250
     FM300100 VRB03KT P6SM BKN250
     FM301000 VRB03KT P6SM SCT250
      TEMPO 3011/3013 5SM BR
     FM301600 36006KT P6SM BKN050=



000
FTUS43 KOAX 292201 AAA
TAFOMA
TAF AMD
KOMA 292201Z 2922/3018 34007KT P6SM SCT050 BKN250
     FM300100 02005KT P6SM SCT250
     FM301000 VRB03KT 6SM BR SCT250
      TEMPO 3011/3014 2SM BR
     FM301500 36005KT P6SM SCT050 BKN250=



000
FTUS43 KOAX 292201 AAA
TAFOMA
TAF AMD
KOMA 292201Z 2922/3018 34007KT P6SM SCT050 BKN250
     FM300100 02005KT P6SM SCT250
     FM301000 VRB03KT 6SM BR SCT250
      TEMPO 3011/3014 2SM BR
     FM301500 36005KT P6SM SCT050 BKN250=



000
FTUS43 KOAX 292157 AAA
TAFLNK
TAF AMD
KLNK 292157Z 2922/3018 02005KT P6SM SCT050 BKN250
     FM300100 04004KT P6SM BKN250
     FM301000 VRB03KT P6SM BKN250
      TEMPO 3010/3013 5SM BR
     FM301600 02006KT P6SM BKN050=



000
FTUS43 KOAX 292157 AAA
TAFLNK
TAF AMD
KLNK 292157Z 2922/3018 02005KT P6SM SCT050 BKN250
     FM300100 04004KT P6SM BKN250
     FM301000 VRB03KT P6SM BKN250
      TEMPO 3010/3013 5SM BR
     FM301600 02006KT P6SM BKN050=



000
FTUS43 KOAX 291720
TAFOFK
TAF
KOFK 291720Z 2918/3018 34007KT P6SM SCT050
     FM300100 VRB03KT P6SM SKC=



000
FTUS43 KOAX 291720
TAFLNK
TAF
KLNK 291720Z 2918/3018 33005KT P6SM BKN050
     FM301000 VRB03KT P6SM SKC=



000
FTUS43 KOAX 291720
TAFOMA
TAF
KOMA 291720Z 2918/3018 34007KT P6SM BKN050
     FM301000 VRB03KT P6SM SKC
      TEMPO 3010/3014 5SM BR=



000
FTUS43 KOAX 291720
TAFLNK
TAF
KLNK 291720Z 2918/3018 33005KT P6SM BKN050
     FM301000 VRB03KT P6SM SKC=



000
FTUS43 KOAX 291720
TAFOFK
TAF
KOFK 291720Z 2918/3018 34007KT P6SM SCT050
     FM300100 VRB03KT P6SM SKC=



000
FTUS43 KOAX 291720
TAFOMA
TAF
KOMA 291720Z 2918/3018 34007KT P6SM BKN050
     FM301000 VRB03KT P6SM SKC
      TEMPO 3010/3014 5SM BR=



000
FTUS43 KOAX 291120
TAFOFK
TAF
KOFK 291120Z 2912/3012 VRB03KT P6SM SKC
     FM291500 33008KT P6SM SCT040
     FM300000 VRB03KT P6SM SKC=



000
FTUS43 KOAX 291120
TAFLNK
TAF
KLNK 291120Z 2912/3012 33005KT P6SM SCT120
     FM291500 35008KT P6SM SCT040
     FM300000 VRB03KT P6SM SKC=



000
FTUS43 KOAX 291120
TAFOMA
TAF
KOMA 291120Z 2912/3012 33005KT P6SM SKC
     FM291500 34009KT P6SM SCT040
     FM300000 VRB03KT P6SM SKC=



000
FTUS43 KOAX 291120
TAFLNK
TAF
KLNK 291120Z 2912/3012 33005KT P6SM SCT120
     FM291500 35008KT P6SM SCT040
     FM300000 VRB03KT P6SM SKC=



000
FTUS43 KOAX 291120
TAFOMA
TAF
KOMA 291120Z 2912/3012 33005KT P6SM SKC
     FM291500 34009KT P6SM SCT040
     FM300000 VRB03KT P6SM SKC=



000
FTUS43 KOAX 291120
TAFOFK
TAF
KOFK 291120Z 2912/3012 VRB03KT P6SM SKC
     FM291500 33008KT P6SM SCT040
     FM300000 VRB03KT P6SM SKC=



000
FTUS43 KOAX 290520
TAFOFK
TAF
KOFK 290520Z 2906/3006 02004KT P6SM SKC
     FM291500 33008KT P6SM SCT040=



000
FTUS43 KOAX 290520
TAFLNK
TAF
KLNK 290520Z 2906/3006 01004KT P6SM SCT120
     FM291500 35008KT P6SM BKN040
     FM300000 03006KT P6SM SKC=



000
FTUS43 KOAX 290520
TAFOFK
TAF
KOFK 290520Z 2906/3006 02004KT P6SM SKC
     FM291500 33008KT P6SM SCT040=



000
FTUS43 KOAX 290520
TAFLNK
TAF
KLNK 290520Z 2906/3006 01004KT P6SM SCT120
     FM291500 35008KT P6SM BKN040
     FM300000 03006KT P6SM SKC=



000
FTUS43 KOAX 290520
TAFOMA
TAF
KOMA 290520Z 2906/3006 36004KT P6SM SKC
     FM291500 34009KT P6SM BKN040
     FM300000 02005KT P6SM SKC=



000
FTUS43 KOAX 290520
TAFOMA
TAF
KOMA 290520Z 2906/3006 36004KT P6SM SKC
     FM291500 34009KT P6SM BKN040
     FM300000 02005KT P6SM SKC=



    US Dept of Commerce
    National Oceanic and Atmospheric Administration
    National Weather Service
    1325 East West Highway
    Silver Spring, MD 20910
    Page Author: NWS Internet Services Team
Disclaimer
Information Quality
Credits
Glossary
Privacy Policy
Freedom of Information Act (FOIA)
About Us
Career Opportunities